createdAt,value
2023-03-11T00:03:31.849Z,100154.94
2023-03-11T00:08:33.579Z,100172.03
2023-03-11T00:13:40.935Z,100178.41
2023-03-11T00:18:42.707Z,100184.25
2023-03-11T00:23:45.191Z,100191.69
2023-03-11T00:28:49.466Z,100204.19
2023-03-11T00:33:53.649Z,100218.69
2023-03-11T00:38:58.097Z,100226.38
2023-03-11T00:44:03.154Z,100247.75
2023-03-11T00:49:05.262Z,100259.56
2023-03-11T00:54:07.194Z,100275.50
2023-03-11T00:59:08.888Z,100282.75
2023-03-11T01:04:15.519Z,100284.22
2023-03-11T01:09:17.322Z,100290.84
2023-03-11T01:14:19.020Z,100291.31
2023-03-11T01:19:20.807Z,100307.66
2023-03-11T01:24:27.820Z,100308.44
2023-03-11T01:29:36.735Z,100316.38
2023-03-11T01:34:38.657Z,100330.84
2023-03-11T01:39:45.703Z,100322.56
2023-03-11T01:44:49.881Z,100342.41
2023-03-11T01:49:55.155Z,100340.38
2023-03-11T01:54:56.936Z,100361.84
2023-03-11T01:59:59.764Z,100363.50
2023-03-11T02:05:05.193Z,100356.72
2023-03-11T02:10:08.149Z,100375.28
2023-03-11T02:15:13.323Z,100373.47
2023-03-11T02:20:33.066Z,100384.94
2023-03-11T02:25:53.623Z,100389.38
2023-03-11T02:30:58.645Z,100392.69
2023-03-11T02:36:00.723Z,100403.81
2023-03-11T02:41:03.378Z,100401.91
2023-03-11T02:46:10.104Z,100407.16
2023-03-11T02:51:11.835Z,100407.50
2023-03-11T02:56:13.697Z,100412.75
2023-03-11T03:01:18.029Z,100416.09
2023-03-11T03:06:23.544Z,100418.72
2023-03-11T03:11:27.947Z,100421.94
2023-03-11T03:16:34.511Z,100427.78
2023-03-11T03:21:36.254Z,100439.97
2023-03-11T03:26:40.992Z,100449.78
2023-03-11T03:31:48.178Z,100458.53
2023-03-11T03:36:50.332Z,100469.06
2023-03-11T03:41:56.283Z,100480.78
2023-03-11T03:47:05.053Z,100489.13
2023-03-11T03:52:07.502Z,100494.63
2023-03-11T03:57:09.516Z,100501.75
2023-03-11T04:02:21.453Z,100512.16
2023-03-11T04:07:26.338Z,100515.66
2023-03-11T04:12:32.880Z,100514.97
2023-03-11T04:17:36.718Z,100524.47
2023-03-11T04:22:40.672Z,100532.94
2023-03-11T04:27:46.158Z,100537.03
2023-03-11T04:32:49.139Z,100542.03
2023-03-11T04:37:56.128Z,100541.78
2023-03-11T04:43:01.240Z,100554.06
2023-03-11T04:48:03.082Z,100565.78
2023-03-11T04:53:08.617Z,100560.72
2023-03-11T04:58:10.496Z,100575.34
2023-03-11T05:03:13.778Z,100576.66
2023-03-11T05:08:15.755Z,100591.06
2023-03-11T05:13:17.720Z,100597.00
2023-03-11T05:18:19.586Z,100602.72
2023-03-11T05:23:25.014Z,100605.41
2023-03-11T05:28:26.813Z,100605.47
2023-03-11T05:33:35.300Z,100618.53
2023-03-11T05:38:38.153Z,100617.75
2023-03-11T05:43:42.776Z,100632.75
2023-03-11T05:48:48.515Z,100646.00
2023-03-11T05:53:50.844Z,100662.97
2023-03-11T05:59:00.888Z,100663.63
2023-03-11T06:04:07.006Z,100666.88
2023-03-11T06:09:17.147Z,100675.13
2023-03-11T06:14:22.030Z,100675.47
2023-03-11T06:19:26.680Z,100681.56
2023-03-11T06:24:28.551Z,100687.63
2023-03-11T06:29:30.604Z,100697.91
2023-03-11T06:34:32.705Z,100700.84
2023-03-11T06:39:42.435Z,100703.13
2023-03-11T06:44:49.589Z,100709.53
2023-03-11T06:49:55.269Z,100717.94
2023-03-11T06:54:57.203Z,100719.72
2023-03-11T06:59:59.381Z,100730.00
2023-03-11T07:05:02.023Z,100743.72
2023-03-11T07:10:04.982Z,100747.53
2023-03-11T07:15:14.073Z,100750.03
2023-03-11T07:20:16.958Z,100770.88
2023-03-11T07:25:20.946Z,100771.44
2023-03-11T07:30:25.634Z,100781.91
2023-03-11T07:35:29.860Z,100798.94
2023-03-11T07:40:31.562Z,100799.38
2023-03-11T07:45:33.223Z,100804.22
2023-03-11T07:50:37.320Z,100822.91
2023-03-11T07:55:41.546Z,100823.19
2023-03-11T08:00:45.617Z,100835.44
2023-03-11T08:05:49.606Z,100837.47
2023-03-11T08:10:51.484Z,100850.78
2023-03-11T08:15:53.408Z,100851.72
2023-03-11T08:20:55.585Z,100853.31
2023-03-11T08:25:57.470Z,100864.56
2023-03-11T08:31:01.827Z,100874.75
2023-03-11T08:36:06.446Z,100877.84
2023-03-11T08:41:10.647Z,100879.25
2023-03-11T08:46:30.109Z,100881.63
2023-03-11T08:51:36.906Z,100884.25
2023-03-11T08:56:38.609Z,100888.53
2023-03-11T09:01:40.370Z,100894.50
2023-03-11T09:06:43.875Z,100904.03
2023-03-11T09:11:48.513Z,100903.03
2023-03-11T09:16:53.905Z,100906.81
2023-03-11T09:21:55.826Z,100910.09
2023-03-11T09:26:59.898Z,100906.72
2023-03-11T09:32:04.195Z,100911.09
2023-03-11T09:37:10.833Z,100912.72
2023-03-11T09:42:21.019Z,100911.63
2023-03-11T09:47:22.885Z,100917.56
2023-03-11T09:52:33.093Z,100915.78
2023-03-11T09:57:38.725Z,100925.03
2023-03-11T10:02:43.735Z,100919.78
2023-03-11T10:07:57.848Z,100925.66
2023-03-11T10:13:02.476Z,100925.97
2023-03-11T10:18:19.772Z,100926.53
2023-03-11T10:23:27.099Z,100927.00
2023-03-11T10:28:39.919Z,100918.44
2023-03-11T10:33:48.959Z,100916.31
2023-03-11T10:38:56.110Z,100928.19
2023-03-11T10:44:11.010Z,100930.31
2023-03-11T10:49:16.930Z,100923.75
2023-03-11T10:54:23.887Z,100921.81
2023-03-11T10:59:46.215Z,100924.72
2023-03-11T11:04:51.221Z,100923.06
2023-03-11T11:10:11.810Z,100918.88
2023-03-11T11:15:27.834Z,100924.88
2023-03-11T11:20:33.103Z,100922.88
2023-03-11T11:25:38.221Z,100924.81
2023-03-11T11:30:56.107Z,100925.88
2023-03-11T11:36:07.158Z,100927.75
2023-03-11T11:41:13.821Z,100917.78
2023-03-11T11:46:27.952Z,100918.94
2023-03-11T11:51:35.568Z,100918.25
2023-03-11T11:56:40.952Z,100921.19
2023-03-11T12:01:55.052Z,100912.78
2023-03-11T12:07:27.202Z,100913.13
2023-03-11T12:13:13.908Z,100920.78
2023-03-11T12:18:41.343Z,100912.88
2023-03-11T12:23:47.364Z,100912.22
2023-03-11T12:28:58.892Z,100930.41
2023-03-11T12:34:05.503Z,100930.75
2023-03-11T12:39:31.520Z,100935.84
2023-03-11T12:44:33.838Z,100924.09
2023-03-11T12:49:49.329Z,100927.38
2023-03-11T12:54:56.972Z,100929.06
2023-03-11T13:00:27.364Z,100920.09
2023-03-11T13:05:53.698Z,100927.03
2023-03-11T13:10:56.577Z,100924.78
2023-03-11T13:16:12.899Z,100918.97
2023-03-11T13:21:32.803Z,100913.84
2023-03-11T13:26:44.087Z,100919.41
2023-03-11T13:32:17.935Z,100917.84
2023-03-11T13:37:37.914Z,100918.25
2023-03-11T13:42:54.905Z,100923.31
2023-03-11T13:47:59.690Z,100929.38
2023-03-11T13:53:03.919Z,100929.63
2023-03-11T13:58:23.518Z,100939.66
2023-03-11T14:03:31.160Z,100947.53
2023-03-11T14:08:35.264Z,100947.03
2023-03-11T14:13:49.859Z,100951.16
2023-03-11T14:19:16.825Z,100958.66
2023-03-11T14:24:29.285Z,100963.44
2023-03-11T14:29:39.354Z,100968.19
2023-03-11T14:34:46.028Z,100978.41
2023-03-11T14:39:54.023Z,100992.31
2023-03-11T14:45:08.008Z,100986.16
2023-03-11T14:50:16.773Z,100984.63
2023-03-11T14:55:32.148Z,100987.06
2023-03-11T15:00:40.402Z,100986.84
2023-03-11T15:05:46.396Z,100986.97
2023-03-11T15:11:03.571Z,100992.53
2023-03-11T15:16:10.462Z,100994.03
2023-03-11T15:21:20.285Z,100982.34
2023-03-11T15:26:25.018Z,100988.53
2023-03-11T15:31:33.007Z,100990.31
2023-03-11T15:36:43.775Z,100990.41
2023-03-11T15:41:59.172Z,100996.56
2023-03-11T15:47:03.196Z,101000.91
2023-03-11T15:52:08.072Z,100986.38
2023-03-11T15:57:18.956Z,100986.09
2023-03-11T16:02:25.651Z,100980.91
2023-03-11T16:07:38.985Z,100980.69
2023-03-11T16:12:44.021Z,100984.91
2023-03-11T16:17:49.649Z,100999.19
2023-03-11T16:22:56.532Z,101001.13
2023-03-11T16:27:58.379Z,100991.28
2023-03-11T16:33:05.332Z,100993.22
2023-03-11T16:38:07.896Z,100998.41
2023-03-11T16:43:12.707Z,100997.56
2023-03-11T16:48:16.678Z,100993.34
2023-03-11T16:53:21.941Z,101001.22
2023-03-11T16:58:26.076Z,101010.75
2023-03-11T17:03:34.437Z,101009.44
2023-03-11T17:08:46.136Z,101011.75
2023-03-11T17:13:51.210Z,101012.09
2023-03-11T17:18:53.302Z,101025.50
2023-03-11T17:23:58.886Z,101018.63
2023-03-11T17:29:00.892Z,101020.47
2023-03-11T17:34:03.182Z,101025.09
2023-03-11T17:39:04.906Z,101029.47
2023-03-11T17:44:12.913Z,101041.16
2023-03-11T17:49:17.147Z,101046.38
2023-03-11T17:54:21.208Z,101047.34
2023-03-11T17:59:25.236Z,101050.63
2023-03-11T18:04:26.969Z,101048.84
2023-03-11T18:09:30.970Z,101066.38
2023-03-11T18:14:32.951Z,101058.47
2023-03-11T18:19:34.751Z,101066.25
2023-03-11T18:24:39.340Z,101057.25
2023-03-11T18:29:43.537Z,101068.06
2023-03-11T18:34:45.460Z,101080.97
2023-03-11T18:39:47.088Z,101067.31
2023-03-11T18:44:51.313Z,101076.78
2023-03-11T18:49:56.177Z,101078.34
2023-03-11T18:55:02.383Z,101078.69
2023-03-11T19:00:04.619Z,101074.16
2023-03-11T19:05:07.053Z,101083.63
2023-03-11T19:10:09.620Z,101070.69
2023-03-11T19:15:14.293Z,101081.97
2023-03-11T19:20:17.270Z,101083.03
2023-03-11T19:25:27.807Z,101091.69
2023-03-11T19:30:29.906Z,101093.22
2023-03-11T19:35:34.060Z,101099.72
2023-03-11T19:40:39.745Z,101104.50
2023-03-11T19:45:50.580Z,101105.13
2023-03-11T19:50:56.096Z,101105.13
2023-03-11T19:56:03.316Z,101113.50
2023-03-11T20:01:07.139Z,101101.50
2023-03-11T20:06:13.565Z,101111.72
2023-03-11T20:11:17.689Z,101128.63
2023-03-11T20:16:19.885Z,101133.19
2023-03-11T20:21:26.816Z,101143.00
2023-03-11T20:26:31.083Z,101153.81
2023-03-11T20:31:37.708Z,101151.91
2023-03-11T20:36:41.798Z,101153.47
2023-03-11T20:41:49.151Z,101161.38
2023-03-11T20:46:54.820Z,101179.25
2023-03-11T20:51:59.591Z,101168.91
2023-03-11T20:57:06.070Z,101161.66
2023-03-11T21:02:11.356Z,101158.06
2023-03-11T21:07:13.355Z,101154.72
2023-03-11T21:12:20.518Z,101157.09
2023-03-11T21:17:22.577Z,101156.97
2023-03-11T21:22:29.151Z,101163.63
2023-03-11T21:27:33.107Z,101160.50
2023-03-11T21:32:37.483Z,101158.13
2023-03-11T21:37:39.337Z,101157.06
2023-03-11T21:42:41.203Z,101164.28
2023-03-11T21:47:45.235Z,101167.59
2023-03-11T21:52:49.274Z,101174.34
2023-03-11T21:57:55.622Z,101166.56
2023-03-11T22:02:57.396Z,101175.75
2023-03-11T22:07:59.289Z,101176.38
2023-03-11T22:13:04.023Z,101170.81
2023-03-11T22:18:05.833Z,101170.69
2023-03-11T22:23:12.475Z,101171.16
2023-03-11T22:28:18.426Z,101174.09
2023-03-11T22:33:22.975Z,101179.34
2023-03-11T22:38:24.770Z,101181.34
2023-03-11T22:43:28.967Z,101180.81
2023-03-11T22:48:31.295Z,101177.13
2023-03-11T22:53:35.550Z,101181.63
2023-03-11T22:58:37.426Z,101177.84
2023-03-11T23:03:42.161Z,101180.78
2023-03-11T23:08:46.450Z,101175.81
2023-03-11T23:13:48.800Z,101174.88
2023-03-11T23:18:53.297Z,101180.81
2023-03-11T23:23:55.413Z,101179.50
2023-03-11T23:28:58.375Z,101170.16
2023-03-11T23:34:02.476Z,101166.69
2023-03-11T23:39:08.865Z,101173.44
2023-03-11T23:44:16.308Z,101174.66
2023-03-11T23:49:18.076Z,101178.00
2023-03-11T23:54:22.154Z,101177.25
2023-03-11T23:59:29.108Z,101181.03
